PWSweather.com
Personal Weather Stations
Station Observations

Acton, CA 93510

Lat: 34.47703, Lon: -118.17483

Elevation: 2900

Station Type: Davis Vantage Pro 2

http://www.actonastro.com/weather/current.php

High Low Average
Temperature 58.7°F14.8°C 36.8°F2.7°C 48.1°F8.9°C
Dew Point 30.1°F-1.1°C 8.6°F-13.0°C 19.1°F-7.2°C
Winds 22.0 mph 35.4 kmh 1.0 mph 1.6 kmh 8.0 mph E12.9 kmh E
Wind Gusts 30.0 mph48.3 kmh 6.0 mph9.7 kmh 17.0 mph27.4 kmh
Humidity 59% 17% 35%
Pressure 30.25 in1024.4 mb 30.09 in1019.0 mb -
Precipitation 0.00 in0.0 mm - -
Hour Temp Dew Point Humidity Winds Wind Gusts Pressure Precip Precip Rate Daily Precip Total
12:01 AM 39.9°F4.4°C 22.8°F-5.1°C 50% 9.0 mph ENE14.5 kmh ENE 10.0 mph16.1 kmh 30.10 in1019.3 mb 0.00 in0.0 mm 0.00 in0.0 mm 0.00 in0.0 mm
12:06 AM 40.2°F4.6°C 22.6°F-5.2°C 49% 6.0 mph E9.7 kmh E 10.0 mph16.1 kmh 30.10 in1019.3 mb 0.00 in0.0 mm 0.00 in0.0 mm 0.00 in0.0 mm
12:11 AM 40.1°F4.5°C 22.5°F-5.3°C 49% 4.0 mph ESE6.4 kmh ESE 10.0 mph16.1 kmh 30.10 in1019.3 mb 0.00 in0.0 mm 0.00 in0.0 mm 0.00 in0.0 mm
12:16 AM 39.5°F4.2°C 22.4°F-5.3°C 50% 2.0 mph E3.2 kmh E 10.0 mph16.1 kmh 30.10 in1019.3 mb 0.00 in0.0 mm 0.00 in0.0 mm 0.00 in0.0 mm
12:21 AM 39.2°F4.0°C 22.6°F-5.2°C 51% 5.0 mph ESE8.0 kmh ESE 7.0 mph11.3 kmh 30.10 in1019.3 mb 0.00 in0.0 mm 0.00 in0.0 mm 0.00 in0.0 mm
12:26 AM 39.1°F3.9°C 22.5°F-5.3°C 51% 3.0 mph SE4.8 kmh SE 7.0 mph11.3 kmh 30.10 in1019.3 mb 0.00 in0.0 mm 0.00 in0.0 mm 0.00 in0.0 mm
12:31 AM 38.9°F3.8°C 22.3°F-5.4°C 51% 4.0 mph ESE6.4 kmh ESE 7.0 mph11.3 kmh 30.10 in1019.3 mb 0.00 in0.0 mm 0.00 in0.0 mm 0.00 in0.0 mm
12:36 AM 38.8°F3.8°C 22.7°F-5.2°C 52% 2.0 mph ENE3.2 kmh ENE 7.0 mph11.3 kmh 30.10 in1019.3 mb 0.00 in0.0 mm 0.00 in0.0 mm 0.00 in0.0 mm
12:41 AM 39.2°F4.0°C 23.1°F-4.9°C 52% 10.0 mph ENE16.1 kmh ENE 12.0 mph19.3 kmh 30.10 in1019.3 mb 0.00 in0.0 mm 0.00 in0.0 mm 0.00 in0.0 mm
12:46 AM 39.9°F4.4°C 22.8°F-5.1°C 50% 12.0 mph ENE19.3 kmh ENE 13.0 mph20.9 kmh 30.10 in1019.3 mb 0.00 in0.0 mm 0.00 in0.0 mm 0.00 in0.0 mm
12:51 AM 40.3°F4.6°C 22.7°F-5.2°C 49% 10.0 mph NE16.1 kmh NE 15.0 mph24.1 kmh 30.10 in1019.3 mb 0.00 in0.0 mm 0.00 in0.0 mm 0.00 in0.0 mm
12:56 AM 40.5°F4.7°C 22.4°F-5.3°C 48% 10.0 mph NE16.1 kmh NE 15.0 mph24.1 kmh 30.10 in1019.3 mb 0.00 in0.0 mm 0.00 in0.0 mm 0.00 in0.0 mm
01:01 AM 40.3°F4.6°C 22.2°F-5.4°C 48% 6.0 mph ENE9.7 kmh ENE 15.0 mph24.1 kmh 30.10 in1019.3 mb 0.00 in0.0 mm 0.00 in0.0 mm 0.00 in0.0 mm
01:06 AM 40.2°F4.6°C 22.6°F-5.2°C 49% 8.0 mph NE12.9 kmh NE 15.0 mph24.1 kmh 30.10 in1019.3 mb 0.00 in0.0 mm 0.00 in0.0 mm 0.00 in0.0 mm
01:11 AM 40.1°F4.5°C 22.5°F-5.3°C 49% 10.0 mph NE16.1 kmh NE 14.0 mph22.5 kmh 30.10 in1019.3 mb 0.00 in0.0 mm 0.00 in0.0 mm 0.00 in0.0 mm
01:16 AM 40.1°F4.5°C 22.5°F-5.3°C 49% 8.0 mph ENE12.9 kmh ENE 14.0 mph22.5 kmh 30.09 in1019.0 mb 0.00 in0.0 mm 0.00 in0.0 mm 0.00 in0.0 mm
01:21 AM 39.9°F4.4°C 22.3°F-5.4°C 49% 5.0 mph ENE8.0 kmh ENE 13.0 mph20.9 kmh 30.09 in1019.0 mb 0.00 in0.0 mm 0.00 in0.0 mm 0.00 in0.0 mm
01:26 AM 39.5°F4.2°C 22.4°F-5.3°C 50% 3.0 mph E4.8 kmh E 13.0 mph20.9 kmh 30.09 in1019.0 mb 0.00 in0.0 mm 0.00 in0.0 mm 0.00 in0.0 mm
01:31 AM 39.3°F4.1°C 22.2°F-5.4°C 50% 3.0 mph ENE4.8 kmh ENE 11.0 mph17.7 kmh 30.10 in1019.3 mb 0.00 in0.0 mm 0.00 in0.0 mm 0.00 in0.0 mm
01:36 AM 39.2°F4.0°C 22.6°F-5.2°C 51% 2.0 mph ENE3.2 kmh ENE 11.0 mph17.7 kmh 30.10 in1019.3 mb 0.00 in0.0 mm 0.00 in0.0 mm 0.00 in0.0 mm
01:41 AM 39.1°F3.9°C 22.5°F-5.3°C 51% 3.0 mph ESE4.8 kmh ESE 6.0 mph9.7 kmh 30.10 in1019.3 mb 0.00 in0.0 mm 0.00 in0.0 mm 0.00 in0.0 mm
01:46 AM 39.1°F3.9°C 22.5°F-5.3°C 51% 1.0 mph SE1.6 kmh SE 7.0 mph11.3 kmh 30.10 in1019.3 mb 0.00 in0.0 mm 0.00 in0.0 mm 0.00 in0.0 mm
01:51 AM 38.9°F3.8°C 22.8°F-5.1°C 52% 4.0 mph SE6.4 kmh SE 7.0 mph11.3 kmh 30.10 in1019.3 mb 0.00 in0.0 mm 0.00 in0.0 mm 0.00 in0.0 mm
01:56 AM 38.8°F3.8°C 22.7°F-5.2°C 52% 5.0 mph ESE8.0 kmh ESE 9.0 mph14.5 kmh 30.10 in1019.3 mb 0.00 in0.0 mm 0.00 in0.0 mm 0.00 in0.0 mm
02:01 AM 38.8°F3.8°C 22.7°F-5.2°C 52% 6.0 mph ESE9.7 kmh ESE 9.0 mph14.5 kmh 30.09 in1019.0 mb 0.00 in0.0 mm 0.00 in0.0 mm 0.00 in0.0 mm
02:06 AM 38.8°F3.8°C 22.7°F-5.2°C 52% 2.0 mph ESE3.2 kmh ESE 9.0 mph14.5 kmh 30.09 in1019.0 mb 0.00 in0.0 mm 0.00 in0.0 mm 0.00 in0.0 mm
02:11 AM 38.8°F3.8°C 22.7°F-5.2°C 52% 2.0 mph E3.2 kmh E 9.0 mph14.5 kmh 30.09 in1019.0 mb 0.00 in0.0 mm 0.00 in0.0 mm 0.00 in0.0 mm
02:16 AM 38.5°F3.6°C 22.9°F-5.1°C 53% 3.0 mph E4.8 kmh E 9.0 mph14.5 kmh 30.09 in1019.0 mb 0.00 in0.0 mm 0.00 in0.0 mm 0.00 in0.0 mm
02:21 AM 38.3°F3.5°C 22.7°F-5.2°C 53% 2.0 mph ESE3.2 kmh ESE 9.0 mph14.5 kmh 30.09 in1019.0 mb 0.00 in0.0 mm 0.00 in0.0 mm 0.00 in0.0 mm
02:26 AM 38.3°F3.5°C 22.7°F-5.2°C 53% 4.0 mph ESE6.4 kmh ESE 8.0 mph12.9 kmh 30.09 in1019.0 mb 0.00 in0.0 mm 0.00 in0.0 mm 0.00 in0.0 mm
02:31 AM 38.3°F3.5°C 22.7°F-5.2°C 53% 4.0 mph SE6.4 kmh SE 9.0 mph14.5 kmh 30.10 in1019.3 mb 0.00 in0.0 mm 0.00 in0.0 mm 0.00 in0.0 mm
02:36 AM 38.5°F3.6°C 22.9°F-5.1°C 53% 3.0 mph E4.8 kmh E 9.0 mph14.5 kmh 30.10 in1019.3 mb 0.00 in0.0 mm 0.00 in0.0 mm 0.00 in0.0 mm
02:41 AM 38.5°F3.6°C 22.9°F-5.1°C 53% 3.0 mph SE4.8 kmh SE 9.0 mph14.5 kmh 30.10 in1019.3 mb 0.00 in0.0 mm 0.00 in0.0 mm 0.00 in0.0 mm
02:46 AM 38.3°F3.5°C 22.7°F-5.2°C 53% 2.0 mph ESE3.2 kmh ESE 9.0 mph14.5 kmh 30.10 in1019.3 mb 0.00 in0.0 mm 0.00 in0.0 mm 0.00 in0.0 mm
02:51 AM 38.2°F3.4°C 22.6°F-5.2°C 53% 4.0 mph SE6.4 kmh SE 7.0 mph11.3 kmh 30.10 in1019.3 mb 0.00 in0.0 mm 0.00 in0.0 mm 0.00 in0.0 mm
02:56 AM 38.0°F3.3°C 22.9°F-5.1°C 54% 2.0 mph SE3.2 kmh SE 7.0 mph11.3 kmh 30.10 in1019.3 mb 0.00 in0.0 mm 0.00 in0.0 mm 0.00 in0.0 mm
03:01 AM 38.0°F3.3°C 22.9°F-5.1°C 54% 1.0 mph SE1.6 kmh SE 7.0 mph11.3 kmh 30.10 in1019.3 mb 0.00 in0.0 mm 0.00 in0.0 mm 0.00 in0.0 mm
03:06 AM 38.0°F3.3°C 22.9°F-5.1°C 54% 4.0 mph SE6.4 kmh SE 9.0 mph14.5 kmh 30.10 in1019.3 mb 0.00 in0.0 mm 0.00 in0.0 mm 0.00 in0.0 mm
03:11 AM 38.0°F3.3°C 22.9°F-5.1°C 54% 2.0 mph SE3.2 kmh SE 9.0 mph14.5 kmh 30.10 in1019.3 mb 0.00 in0.0 mm 0.00 in0.0 mm 0.00 in0.0 mm
03:16 AM 37.9°F3.3°C 22.8°F-5.1°C 54% 3.0 mph SSE4.8 kmh SSE 9.0 mph14.5 kmh 30.10 in1019.3 mb 0.00 in0.0 mm 0.00 in0.0 mm 0.00 in0.0 mm
03:21 AM 37.9°F3.3°C 23.2°F-4.9°C 55% 1.0 mph ESE1.6 kmh ESE 9.0 mph14.5 kmh 30.10 in1019.3 mb 0.00 in0.0 mm 0.00 in0.0 mm 0.00 in0.0 mm
03:26 AM 37.9°F3.3°C 23.2°F-4.9°C 55% 3.0 mph E4.8 kmh E 9.0 mph14.5 kmh 30.10 in1019.3 mb 0.00 in0.0 mm 0.00 in0.0 mm 0.00 in0.0 mm
03:31 AM 37.9°F3.3°C 23.2°F-4.9°C 55% 2.0 mph E3.2 kmh E 9.0 mph14.5 kmh 30.10 in1019.3 mb 0.00 in0.0 mm 0.00 in0.0 mm 0.00 in0.0 mm
03:36 AM 37.9°F3.3°C 23.2°F-4.9°C 55% 4.0 mph ESE6.4 kmh ESE 9.0 mph14.5 kmh 30.10 in1019.3 mb 0.00 in0.0 mm 0.00 in0.0 mm 0.00 in0.0 mm
03:41 AM 37.9°F3.3°C 23.2°F-4.9°C 55% 8.0 mph ESE12.9 kmh ESE 9.0 mph14.5 kmh 30.10 in1019.3 mb 0.00 in0.0 mm 0.00 in0.0 mm 0.00 in0.0 mm
03:46 AM 38.0°F3.3°C 23.3°F-4.8°C 55% 6.0 mph ESE9.7 kmh ESE 15.0 mph24.1 kmh 30.10 in1019.3 mb 0.00 in0.0 mm 0.00 in0.0 mm 0.00 in0.0 mm
03:51 AM 38.0°F3.3°C 23.3°F-4.8°C 55% 7.0 mph SSE11.3 kmh SSE 15.0 mph24.1 kmh 30.10 in1019.3 mb 0.00 in0.0 mm 0.00 in0.0 mm 0.00 in0.0 mm
03:56 AM 38.2°F3.4°C 23.5°F-4.7°C 55% 6.0 mph ESE9.7 kmh ESE 15.0 mph24.1 kmh 30.10 in1019.3 mb 0.00 in0.0 mm 0.00 in0.0 mm 0.00 in0.0 mm
04:01 AM 38.2°F3.4°C 23.5°F-4.7°C 55% 6.0 mph ESE9.7 kmh ESE 15.0 mph24.1 kmh 30.10 in1019.3 mb 0.00 in0.0 mm 0.00 in0.0 mm 0.00 in0.0 mm
04:06 AM 38.2°F3.4°C 23.5°F-4.7°C 55% 6.0 mph SE9.7 kmh SE 13.0 mph20.9 kmh 30.10 in1019.3 mb 0.00 in0.0 mm 0.00 in0.0 mm 0.00 in0.0 mm
04:11 AM 38.3°F3.5°C 23.6°F-4.7°C 55% 5.0 mph E8.0 kmh E 13.0 mph20.9 kmh 30.10 in1019.3 mb 0.00 in0.0 mm 0.00 in0.0 mm 0.00 in0.0 mm
04:16 AM 38.2°F3.4°C 23.5°F-4.7°C 55% 7.0 mph E11.3 kmh E 11.0 mph17.7 kmh 30.12 in1020.0 mb 0.00 in0.0 mm 0.00 in0.0 mm 0.00 in0.0 mm
04:21 AM 38.2°F3.4°C 23.5°F-4.7°C 55% 7.0 mph ESE11.3 kmh ESE 11.0 mph17.7 kmh 30.12 in1020.0 mb 0.00 in0.0 mm 0.00 in0.0 mm 0.00 in0.0 mm
04:26 AM 38.0°F3.3°C 23.3°F-4.8°C 55% 6.0 mph ESE9.7 kmh ESE 11.0 mph17.7 kmh 30.12 in1020.0 mb 0.00 in0.0 mm 0.00 in0.0 mm 0.00 in0.0 mm
04:31 AM 38.0°F3.3°C 23.3°F-4.8°C 55% 5.0 mph E8.0 kmh E 11.0 mph17.7 kmh 30.12 in1020.0 mb 0.00 in0.0 mm 0.00 in0.0 mm 0.00 in0.0 mm
04:36 AM 38.0°F3.3°C 23.3°F-4.8°C 55% 6.0 mph ESE9.7 kmh ESE 11.0 mph17.7 kmh 30.12 in1020.0 mb 0.00 in0.0 mm 0.00 in0.0 mm 0.00 in0.0 mm
04:41 AM 38.0°F3.3°C 23.3°F-4.8°C 55% 4.0 mph E6.4 kmh E 11.0 mph17.7 kmh 30.12 in1020.0 mb 0.00 in0.0 mm 0.00 in0.0 mm 0.00 in0.0 mm
04:46 AM 37.9°F3.3°C 23.6°F-4.7°C 56% 8.0 mph E12.9 kmh E 10.0 mph16.1 kmh 30.13 in1020.3 mb 0.00 in0.0 mm 0.00 in0.0 mm 0.00 in0.0 mm
04:51 AM 37.9°F3.3°C 23.6°F-4.7°C 56% 4.0 mph E6.4 kmh E 10.0 mph16.1 kmh 30.13 in1020.3 mb 0.00 in0.0 mm 0.00 in0.0 mm 0.00 in0.0 mm
04:56 AM 38.0°F3.3°C 23.7°F-4.6°C 56% 7.0 mph ENE11.3 kmh ENE 12.0 mph19.3 kmh 30.13 in1020.3 mb 0.00 in0.0 mm 0.00 in0.0 mm 0.00 in0.0 mm
05:01 AM 38.3°F3.5°C 23.6°F-4.7°C 55% 5.0 mph ENE8.0 kmh ENE 12.0 mph19.3 kmh 30.14 in1020.7 mb 0.00 in0.0 mm 0.00 in0.0 mm 0.00 in0.0 mm
05:06 AM 38.3°F3.5°C 23.6°F-4.7°C 55% 2.0 mph ENE3.2 kmh ENE 12.0 mph19.3 kmh 30.14 in1020.7 mb 0.00 in0.0 mm 0.00 in0.0 mm 0.00 in0.0 mm
05:11 AM 38.3°F3.5°C 23.6°F-4.7°C 55% 4.0 mph E6.4 kmh E 12.0 mph19.3 kmh 30.14 in1020.7 mb 0.00 in0.0 mm 0.00 in0.0 mm 0.00 in0.0 mm
05:16 AM 38.3°F3.5°C 23.6°F-4.7°C 55% 5.0 mph E8.0 kmh E 12.0 mph19.3 kmh 30.15 in1021.0 mb 0.00 in0.0 mm 0.00 in0.0 mm 0.00 in0.0 mm
05:21 AM 38.3°F3.5°C 24.0°F-4.4°C 56% 6.0 mph ENE9.7 kmh ENE 13.0 mph20.9 kmh 30.15 in1021.0 mb 0.00 in0.0 mm 0.00 in0.0 mm 0.00 in0.0 mm
05:26 AM 38.5°F3.6°C 23.8°F-4.6°C 55% 11.0 mph ENE17.7 kmh ENE 14.0 mph22.5 kmh 30.15 in1021.0 mb 0.00 in0.0 mm 0.00 in0.0 mm 0.00 in0.0 mm
05:31 AM 38.8°F3.8°C 24.0°F-4.4°C 55% 13.0 mph ENE20.9 kmh ENE 17.0 mph27.4 kmh 30.16 in1021.3 mb 0.00 in0.0 mm 0.00 in0.0 mm 0.00 in0.0 mm
05:36 AM 38.9°F3.8°C 23.7°F-4.6°C 54% 9.0 mph ENE14.5 kmh ENE 17.0 mph27.4 kmh 30.16 in1021.3 mb 0.00 in0.0 mm 0.00 in0.0 mm 0.00 in0.0 mm
05:41 AM 38.8°F3.8°C 23.6°F-4.7°C 54% 7.0 mph ENE11.3 kmh ENE 17.0 mph27.4 kmh 30.16 in1021.3 mb 0.00 in0.0 mm 0.00 in0.0 mm 0.00 in0.0 mm
05:46 AM 38.8°F3.8°C 23.6°F-4.7°C 54% 6.0 mph ENE9.7 kmh ENE 17.0 mph27.4 kmh 30.17 in1021.7 mb 0.00 in0.0 mm 0.00 in0.0 mm 0.00 in0.0 mm
05:51 AM 38.5°F3.6°C 23.8°F-4.6°C 55% 5.0 mph ENE8.0 kmh ENE 15.0 mph24.1 kmh 30.17 in1021.7 mb 0.00 in0.0 mm 0.00 in0.0 mm 0.00 in0.0 mm
05:56 AM 38.2°F3.4°C 23.5°F-4.7°C 55% 9.0 mph ENE14.5 kmh ENE 15.0 mph24.1 kmh 30.17 in1021.7 mb 0.00 in0.0 mm 0.00 in0.0 mm 0.00 in0.0 mm
06:01 AM 38.0°F3.3°C 23.7°F-4.6°C 56% 10.0 mph E16.1 kmh E 12.0 mph19.3 kmh 30.17 in1021.7 mb 0.00 in0.0 mm 0.00 in0.0 mm 0.00 in0.0 mm
06:06 AM 38.0°F3.3°C 23.7°F-4.6°C 56% 4.0 mph E6.4 kmh E 12.0 mph19.3 kmh 30.17 in1021.7 mb 0.00 in0.0 mm 0.00 in0.0 mm 0.00 in0.0 mm
06:11 AM 38.0°F3.3°C 23.7°F-4.6°C 56% 3.0 mph E4.8 kmh E 12.0 mph19.3 kmh 30.17 in1021.7 mb 0.00 in0.0 mm 0.00 in0.0 mm 0.00 in0.0 mm
06:16 AM 38.2°F3.4°C 23.9°F-4.5°C 56% 8.0 mph SE12.9 kmh SE 12.0 mph19.3 kmh 30.19 in1022.4 mb 0.00 in0.0 mm 0.00 in0.0 mm 0.00 in0.0 mm
06:21 AM 38.2°F3.4°C 23.9°F-4.5°C 56% 6.0 mph ESE9.7 kmh ESE 12.0 mph19.3 kmh 30.19 in1022.4 mb 0.00 in0.0 mm 0.00 in0.0 mm 0.00 in0.0 mm
06:26 AM 38.2°F3.4°C 23.9°F-4.5°C 56% 4.0 mph ESE6.4 kmh ESE 13.0 mph20.9 kmh 30.19 in1022.4 mb 0.00 in0.0 mm 0.00 in0.0 mm 0.00 in0.0 mm
06:31 AM 38.3°F3.5°C 24.0°F-4.4°C 56% 5.0 mph SE8.0 kmh SE 13.0 mph20.9 kmh 30.19 in1022.4 mb 0.00 in0.0 mm 0.00 in0.0 mm 0.00 in0.0 mm
06:36 AM 38.2°F3.4°C 23.9°F-4.5°C 56% 3.0 mph SE4.8 kmh SE 13.0 mph20.9 kmh 30.19 in1022.4 mb 0.00 in0.0 mm 0.00 in0.0 mm 0.00 in0.0 mm
06:41 AM 37.5°F3.1°C 23.7°F-4.6°C 57% 3.0 mph SE4.8 kmh SE 13.0 mph20.9 kmh 30.19 in1022.4 mb 0.00 in0.0 mm 0.00 in0.0 mm 0.00 in0.0 mm
06:46 AM 37.0°F2.8°C 23.6°F-4.7°C 58% 3.0 mph ESE4.8 kmh ESE 9.0 mph14.5 kmh 30.21 in1023.0 mb 0.00 in0.0 mm 0.00 in0.0 mm 0.00 in0.0 mm
06:51 AM 36.8°F2.7°C 23.4°F-4.8°C 58% 3.0 mph ESE4.8 kmh ESE 9.0 mph14.5 kmh 30.21 in1023.0 mb 0.00 in0.0 mm 0.00 in0.0 mm 0.00 in0.0 mm
06:56 AM 36.9°F2.7°C 23.9°F-4.5°C 59% 4.0 mph E6.4 kmh E 9.0 mph14.5 kmh 30.21 in1023.0 mb 0.00 in0.0 mm 0.00 in0.0 mm 0.00 in0.0 mm
07:01 AM 37.5°F3.1°C 24.5°F-4.2°C 59% 4.0 mph ESE6.4 kmh ESE 10.0 mph16.1 kmh 30.21 in1023.0 mb 0.00 in0.0 mm 0.00 in0.0 mm 0.00 in0.0 mm
07:06 AM 38.0°F3.3°C 24.6°F-4.1°C 58% 8.0 mph E12.9 kmh E 10.0 mph16.1 kmh 30.21 in1023.0 mb 0.00 in0.0 mm 0.00 in0.0 mm 0.00 in0.0 mm
07:11 AM 38.8°F3.8°C 24.9°F-3.9°C 57% 4.0 mph ESE6.4 kmh ESE 12.0 mph19.3 kmh 30.21 in1023.0 mb 0.00 in0.0 mm 0.00 in0.0 mm 0.00 in0.0 mm
07:16 AM 39.2°F4.0°C 24.8°F-4.0°C 56% 5.0 mph SSE8.0 kmh SSE 12.0 mph19.3 kmh 30.22 in1023.4 mb 0.00 in0.0 mm 0.00 in0.0 mm 0.00 in0.0 mm
07:21 AM 39.3°F4.1°C 24.9°F-3.9°C 56% 3.0 mph SE4.8 kmh SE 12.0 mph19.3 kmh 30.22 in1023.4 mb 0.00 in0.0 mm 0.00 in0.0 mm 0.00 in0.0 mm
07:26 AM 39.3°F4.1°C 24.9°F-3.9°C 56% 4.0 mph SE6.4 kmh SE 12.0 mph19.3 kmh 30.22 in1023.4 mb 0.00 in0.0 mm 0.00 in0.0 mm 0.00 in0.0 mm
07:31 AM 39.5°F4.2°C 25.1°F-3.8°C 56% 4.0 mph E6.4 kmh E 10.0 mph16.1 kmh 30.23 in1023.7 mb 0.00 in0.0 mm 0.00 in0.0 mm 0.00 in0.0 mm
07:36 AM 40.1°F4.5°C 25.7°F-3.5°C 56% 4.0 mph NE6.4 kmh NE 12.0 mph19.3 kmh 30.23 in1023.7 mb 0.00 in0.0 mm 0.00 in0.0 mm 0.00 in0.0 mm
07:41 AM 40.5°F4.7°C 25.2°F-3.8°C 54% 9.0 mph ESE14.5 kmh ESE 12.0 mph19.3 kmh 30.23 in1023.7 mb 0.00 in0.0 mm 0.00 in0.0 mm 0.00 in0.0 mm
07:46 AM 41.1°F5.1°C 25.7°F-3.5°C 54% 3.0 mph ESE4.8 kmh ESE 15.0 mph24.1 kmh 30.22 in1023.4 mb 0.00 in0.0 mm 0.00 in0.0 mm 0.00 in0.0 mm
07:51 AM 41.5°F5.3°C 26.1°F-3.3°C 54% 2.0 mph E3.2 kmh E 15.0 mph24.1 kmh 30.22 in1023.4 mb 0.00 in0.0 mm 0.00 in0.0 mm 0.00 in0.0 mm
07:56 AM 41.9°F5.5°C 26.0°F-3.3°C 53% 4.0 mph E6.4 kmh E 15.0 mph24.1 kmh 30.22 in1023.4 mb 0.00 in0.0 mm 0.00 in0.0 mm 0.00 in0.0 mm
08:01 AM 42.1°F5.6°C 25.8°F-3.4°C 52% 6.0 mph E9.7 kmh E 15.0 mph24.1 kmh 30.22 in1023.4 mb 0.00 in0.0 mm 0.00 in0.0 mm 0.00 in0.0 mm
08:06 AM 42.5°F5.8°C 25.2°F-3.8°C 50% 4.0 mph E6.4 kmh E 15.0 mph24.1 kmh 30.22 in1023.4 mb 0.00 in0.0 mm 0.00 in0.0 mm 0.00 in0.0 mm
08:11 AM 42.6°F5.9°C 25.3°F-3.7°C 50% 10.0 mph ESE16.1 kmh ESE 15.0 mph24.1 kmh 30.22 in1023.4 mb 0.00 in0.0 mm 0.00 in0.0 mm 0.00 in0.0 mm
08:16 AM 43.2°F6.2°C 25.8°F-3.4°C 50% 5.0 mph S8.0 kmh S 15.0 mph24.1 kmh 30.23 in1023.7 mb 0.00 in0.0 mm 0.00 in0.0 mm 0.00 in0.0 mm
08:21 AM 43.5°F6.4°C 26.1°F-3.3°C 50% 1.0 mph E1.6 kmh E 15.0 mph24.1 kmh 30.23 in1023.7 mb 0.00 in0.0 mm 0.00 in0.0 mm 0.00 in0.0 mm
08:26 AM 43.9°F6.6°C 26.5°F-3.1°C 50% 7.0 mph E11.3 kmh E 13.0 mph20.9 kmh 30.23 in1023.7 mb 0.00 in0.0 mm 0.00 in0.0 mm 0.00 in0.0 mm
08:31 AM 44.3°F6.8°C 26.4°F-3.1°C 49% 6.0 mph ESE9.7 kmh ESE 13.0 mph20.9 kmh 30.24 in1024.0 mb 0.00 in0.0 mm 0.00 in0.0 mm 0.00 in0.0 mm
08:36 AM 44.3°F6.8°C 26.4°F-3.1°C 49% 5.0 mph E8.0 kmh E 13.0 mph20.9 kmh 30.24 in1024.0 mb 0.00 in0.0 mm 0.00 in0.0 mm 0.00 in0.0 mm
08:41 AM 44.6°F7.0°C 26.6°F-3.0°C 49% 6.0 mph SE9.7 kmh SE 13.0 mph20.9 kmh 30.24 in1024.0 mb 0.00 in0.0 mm 0.00 in0.0 mm 0.00 in0.0 mm
08:46 AM 45.1°F7.3°C 26.6°F-3.0°C 48% 3.0 mph SE4.8 kmh SE 13.0 mph20.9 kmh 30.24 in1024.0 mb 0.00 in0.0 mm 0.00 in0.0 mm 0.00 in0.0 mm
08:51 AM 45.2°F7.3°C 26.7°F-2.9°C 48% 11.0 mph E17.7 kmh E 13.0 mph20.9 kmh 30.24 in1024.0 mb 0.00 in0.0 mm 0.00 in0.0 mm 0.00 in0.0 mm
08:56 AM 45.4°F7.4°C 26.9°F-2.8°C 48% 3.0 mph SE4.8 kmh SE 13.0 mph20.9 kmh 30.24 in1024.0 mb 0.00 in0.0 mm 0.00 in0.0 mm 0.00 in0.0 mm
09:01 AM 45.5°F7.5°C 26.5°F-3.1°C 47% 4.0 mph E6.4 kmh E 13.0 mph20.9 kmh 30.24 in1024.0 mb 0.00 in0.0 mm 0.00 in0.0 mm 0.00 in0.0 mm
09:06 AM 46.1°F7.8°C 27.5°F-2.5°C 48% 6.0 mph ESE9.7 kmh ESE 13.0 mph20.9 kmh 30.24 in1024.0 mb 0.00 in0.0 mm 0.00 in0.0 mm 0.00 in0.0 mm
09:11 AM 46.1°F7.8°C 26.0°F-3.3°C 45% 7.0 mph ENE11.3 kmh ENE 20.0 mph32.2 kmh 30.24 in1024.0 mb 0.00 in0.0 mm 0.00 in0.0 mm 0.00 in0.0 mm
09:16 AM 46.2°F7.9°C 27.1°F-2.7°C 47% 8.0 mph E12.9 kmh E 20.0 mph32.2 kmh 30.25 in1024.4 mb 0.00 in0.0 mm 0.00 in0.0 mm 0.00 in0.0 mm
09:21 AM 47.0°F8.3°C 27.8°F-2.3°C 47% 7.0 mph E11.3 kmh E 20.0 mph32.2 kmh 30.25 in1024.4 mb 0.00 in0.0 mm 0.00 in0.0 mm 0.00 in0.0 mm
09:26 AM 47.4°F8.6°C 27.7°F-2.4°C 46% 7.0 mph E11.3 kmh E 20.0 mph32.2 kmh 30.25 in1024.4 mb 0.00 in0.0 mm 0.00 in0.0 mm 0.00 in0.0 mm
09:31 AM 47.4°F8.6°C 27.1°F-2.7°C 45% 19.0 mph E30.6 kmh E 20.0 mph32.2 kmh 30.23 in1023.7 mb 0.00 in0.0 mm 0.00 in0.0 mm 0.00 in0.0 mm
09:36 AM 47.4°F8.6°C 27.7°F-2.4°C 46% 4.0 mph SE6.4 kmh SE 20.0 mph32.2 kmh 30.23 in1023.7 mb 0.00 in0.0 mm 0.00 in0.0 mm 0.00 in0.0 mm
09:41 AM 47.6°F8.7°C 26.8°F-2.9°C 44% 10.0 mph E16.1 kmh E 20.0 mph32.2 kmh 30.23 in1023.7 mb 0.00 in0.0 mm 0.00 in0.0 mm 0.00 in0.0 mm
09:46 AM 48.3°F9.1°C 27.4°F-2.6°C 44% 7.0 mph E11.3 kmh E 20.0 mph32.2 kmh 30.24 in1024.0 mb 0.00 in0.0 mm 0.00 in0.0 mm 0.00 in0.0 mm
09:51 AM 49.2°F9.6°C 27.1°F-2.7°C 42% 10.0 mph ENE16.1 kmh ENE 17.0 mph27.4 kmh 30.24 in1024.0 mb 0.00 in0.0 mm 0.00 in0.0 mm 0.00 in0.0 mm
09:56 AM 49.2°F9.6°C 27.1°F-2.7°C 42% 11.0 mph ENE17.7 kmh ENE 19.0 mph30.6 kmh 30.24 in1024.0 mb 0.00 in0.0 mm 0.00 in0.0 mm 0.00 in0.0 mm
10:01 AM 49.6°F9.8°C 25.7°F-3.5°C 39% 10.0 mph E16.1 kmh E 19.0 mph30.6 kmh 30.24 in1024.0 mb 0.00 in0.0 mm 0.00 in0.0 mm 0.00 in0.0 mm
10:06 AM 49.8°F9.9°C 26.5°F-3.1°C 40% 15.0 mph ENE24.1 kmh ENE 19.0 mph30.6 kmh 30.24 in1024.0 mb 0.00 in0.0 mm 0.00 in0.0 mm 0.00 in0.0 mm
10:11 AM 49.6°F9.8°C 26.9°F-2.8°C 41% 14.0 mph ENE22.5 kmh ENE 20.0 mph32.2 kmh 30.24 in1024.0 mb 0.00 in0.0 mm 0.00 in0.0 mm 0.00 in0.0 mm
10:16 AM 49.8°F9.9°C 27.6°F-2.4°C 42% 11.0 mph E17.7 kmh E 20.0 mph32.2 kmh 30.24 in1024.0 mb 0.00 in0.0 mm 0.00 in0.0 mm 0.00 in0.0 mm
10:21 AM 50.1°F10.1°C 27.3°F-2.6°C 41% 10.0 mph E16.1 kmh E 20.0 mph32.2 kmh 30.24 in1024.0 mb 0.00 in0.0 mm 0.00 in0.0 mm 0.00 in0.0 mm
10:26 AM 50.2°F10.1°C 28.0°F-2.2°C 42% 10.0 mph ENE16.1 kmh ENE 20.0 mph32.2 kmh 30.24 in1024.0 mb 0.00 in0.0 mm 0.00 in0.0 mm 0.00 in0.0 mm
10:31 AM 50.4°F10.2°C 28.2°F-2.1°C 42% 10.0 mph ENE16.1 kmh ENE 19.0 mph30.6 kmh 30.24 in1024.0 mb 0.00 in0.0 mm 0.00 in0.0 mm 0.00 in0.0 mm
10:36 AM 51.0°F10.6°C 26.9°F-2.8°C 39% 14.0 mph ENE22.5 kmh ENE 20.0 mph32.2 kmh 30.24 in1024.0 mb 0.00 in0.0 mm 0.00 in0.0 mm 0.00 in0.0 mm
10:41 AM 50.8°F10.4°C 26.7°F-2.9°C 39% 10.0 mph ENE16.1 kmh ENE 22.0 mph35.4 kmh 30.24 in1024.0 mb 0.00 in0.0 mm 0.00 in0.0 mm 0.00 in0.0 mm
10:46 AM 51.1°F10.6°C 27.6°F-2.4°C 40% 17.0 mph ENE27.4 kmh ENE 22.0 mph35.4 kmh 30.24 in1024.0 mb 0.00 in0.0 mm 0.00 in0.0 mm 0.00 in0.0 mm
10:51 AM 51.4°F10.8°C 26.7°F-2.9°C 38% 19.0 mph ENE30.6 kmh ENE 22.0 mph35.4 kmh 30.24 in1024.0 mb 0.00 in0.0 mm 0.00 in0.0 mm 0.00 in0.0 mm
10:56 AM 52.2°F11.2°C 26.7°F-2.9°C 37% 9.0 mph E14.5 kmh E 22.0 mph35.4 kmh 30.24 in1024.0 mb 0.00 in0.0 mm 0.00 in0.0 mm 0.00 in0.0 mm
11:01 AM 52.2°F11.2°C 28.0°F-2.2°C 39% 14.0 mph E22.5 kmh E 22.0 mph35.4 kmh 30.23 in1023.7 mb 0.00 in0.0 mm 0.00 in0.0 mm 0.00 in0.0 mm
11:06 AM 52.5°F11.4°C 27.6°F-2.4°C 38% 15.0 mph ENE24.1 kmh ENE 22.0 mph35.4 kmh 30.23 in1023.7 mb 0.00 in0.0 mm 0.00 in0.0 mm 0.00 in0.0 mm
11:11 AM 52.0°F11.1°C 28.4°F-2.0°C 40% 14.0 mph ENE22.5 kmh ENE 21.0 mph33.8 kmh 30.23 in1023.7 mb 0.00 in0.0 mm 0.00 in0.0 mm 0.00 in0.0 mm
11:16 AM 52.6°F11.4°C 28.4°F-2.0°C 39% 21.0 mph E33.8 kmh E 21.0 mph33.8 kmh 30.21 in1023.0 mb 0.00 in0.0 mm 0.00 in0.0 mm 0.00 in0.0 mm
11:21 AM 52.5°F11.4°C 29.5°F-1.4°C 41% 15.0 mph E24.1 kmh E 22.0 mph35.4 kmh 30.21 in1023.0 mb 0.00 in0.0 mm 0.00 in0.0 mm 0.00 in0.0 mm
11:26 AM 52.5°F11.4°C 27.6°F-2.4°C 38% 14.0 mph NE22.5 kmh NE 26.0 mph41.8 kmh 30.21 in1023.0 mb 0.00 in0.0 mm 0.00 in0.0 mm 0.00 in0.0 mm
11:31 AM 53.5°F11.9°C 28.5°F-1.9°C 38% 17.0 mph ENE27.4 kmh ENE 26.0 mph41.8 kmh 30.21 in1023.0 mb 0.00 in0.0 mm 0.00 in0.0 mm 0.00 in0.0 mm
11:36 AM 53.9°F12.2°C 30.1°F-1.1°C 40% 22.0 mph ENE35.4 kmh ENE 30.0 mph48.3 kmh 30.21 in1023.0 mb 0.00 in0.0 mm 0.00 in0.0 mm 0.00 in0.0 mm
11:41 AM 54.5°F12.5°C 19.4°F-7.0°C 25% 15.0 mph ESE24.1 kmh ESE 30.0 mph48.3 kmh 30.21 in1023.0 mb 0.00 in0.0 mm 0.00 in0.0 mm 0.00 in0.0 mm
11:46 AM 54.8°F12.7°C 18.7°F-7.4°C 24% 19.0 mph E30.6 kmh E 30.0 mph48.3 kmh 30.20 in1022.7 mb 0.00 in0.0 mm 0.00 in0.0 mm 0.00 in0.0 mm
11:51 AM 55.6°F13.1°C 19.4°F-7.0°C 24% 13.0 mph ENE20.9 kmh ENE 30.0 mph48.3 kmh 30.20 in1022.7 mb 0.00 in0.0 mm 0.00 in0.0 mm 0.00 in0.0 mm
11:56 AM 56.2°F13.4°C 17.9°F-7.8°C 22% 13.0 mph E20.9 kmh E 24.0 mph38.6 kmh 30.20 in1022.7 mb 0.00 in0.0 mm 0.00 in0.0 mm 0.00 in0.0 mm
12:01 PM 56.3°F13.5°C 18.0°F-7.8°C 22% 7.0 mph E11.3 kmh E 24.0 mph38.6 kmh 30.19 in1022.4 mb 0.00 in0.0 mm 0.00 in0.0 mm 0.00 in0.0 mm
12:06 PM 56.7°F13.7°C 18.3°F-7.6°C 22% 10.0 mph SE16.1 kmh SE 25.0 mph40.2 kmh 30.19 in1022.4 mb 0.00 in0.0 mm 0.00 in0.0 mm 0.00 in0.0 mm
12:11 PM 56.7°F13.7°C 16.1°F-8.8°C 20% 7.0 mph E11.3 kmh E 25.0 mph40.2 kmh 30.19 in1022.4 mb 0.00 in0.0 mm 0.00 in0.0 mm 0.00 in0.0 mm
12:16 PM 56.6°F13.7°C 16.0°F-8.9°C 20% 11.0 mph E17.7 kmh E 25.0 mph40.2 kmh 30.18 in1022.0 mb 0.00 in0.0 mm 0.00 in0.0 mm 0.00 in0.0 mm
12:21 PM 56.9°F13.8°C 16.3°F-8.7°C 20% 17.0 mph E27.4 kmh E 25.0 mph40.2 kmh 30.18 in1022.0 mb 0.00 in0.0 mm 0.00 in0.0 mm 0.00 in0.0 mm
12:26 PM 56.6°F13.7°C 17.1°F-8.3°C 21% 12.0 mph E19.3 kmh E 24.0 mph38.6 kmh 30.18 in1022.0 mb 0.00 in0.0 mm 0.00 in0.0 mm 0.00 in0.0 mm
12:31 PM 56.6°F13.7°C 17.1°F-8.3°C 21% 14.0 mph E22.5 kmh E 28.0 mph45.1 kmh 30.18 in1022.0 mb 0.00 in0.0 mm 0.00 in0.0 mm 0.00 in0.0 mm
12:36 PM 56.3°F13.5°C 16.9°F-8.4°C 21% 14.0 mph E22.5 kmh E 28.0 mph45.1 kmh 30.18 in1022.0 mb 0.00 in0.0 mm 0.00 in0.0 mm 0.00 in0.0 mm
12:41 PM 56.9°F13.8°C 15.1°F-9.4°C 19% 16.0 mph E25.7 kmh E 28.0 mph45.1 kmh 30.18 in1022.0 mb 0.00 in0.0 mm 0.00 in0.0 mm 0.00 in0.0 mm
12:46 PM 57.5°F14.2°C 16.8°F-8.4°C 20% 7.0 mph ESE11.3 kmh ESE 28.0 mph45.1 kmh 30.17 in1021.7 mb 0.00 in0.0 mm 0.00 in0.0 mm 0.00 in0.0 mm
12:51 PM 57.5°F14.2°C 15.6°F-9.1°C 19% 17.0 mph ENE27.4 kmh ENE 24.0 mph38.6 kmh 30.17 in1021.7 mb 0.00 in0.0 mm 0.00 in0.0 mm 0.00 in0.0 mm
12:56 PM 57.2°F14.0°C 17.6°F-8.0°C 21% 14.0 mph ENE22.5 kmh ENE 24.0 mph38.6 kmh 30.17 in1021.7 mb 0.00 in0.0 mm 0.00 in0.0 mm 0.00 in0.0 mm
01:01 PM 56.7°F13.7°C 16.1°F-8.8°C 20% 18.0 mph ENE29.0 kmh ENE 29.0 mph46.7 kmh 30.17 in1021.7 mb 0.00 in0.0 mm 0.00 in0.0 mm 0.00 in0.0 mm
01:06 PM 56.7°F13.7°C 17.2°F-8.2°C 21% 18.0 mph NE29.0 kmh NE 29.0 mph46.7 kmh 30.17 in1021.7 mb 0.00 in0.0 mm 0.00 in0.0 mm 0.00 in0.0 mm
01:11 PM 56.9°F13.8°C 17.4°F-8.1°C 21% 12.0 mph E19.3 kmh E 29.0 mph46.7 kmh 30.17 in1021.7 mb 0.00 in0.0 mm 0.00 in0.0 mm 0.00 in0.0 mm
01:16 PM 57.2°F14.0°C 17.6°F-8.0°C 21% 13.0 mph E20.9 kmh E 29.0 mph46.7 kmh 30.16 in1021.3 mb 0.00 in0.0 mm 0.00 in0.0 mm 0.00 in0.0 mm
01:21 PM 57.5°F14.2°C 16.8°F-8.4°C 20% 17.0 mph E27.4 kmh E 23.0 mph37.0 kmh 30.16 in1021.3 mb 0.00 in0.0 mm 0.00 in0.0 mm 0.00 in0.0 mm
01:26 PM 57.2°F14.0°C 17.6°F-8.0°C 21% 15.0 mph E24.1 kmh E 27.0 mph43.5 kmh 30.16 in1021.3 mb 0.00 in0.0 mm 0.00 in0.0 mm 0.00 in0.0 mm
01:31 PM 57.3°F14.1°C 18.8°F-7.3°C 22% 5.0 mph E8.0 kmh E 27.0 mph43.5 kmh 30.16 in1021.3 mb 0.00 in0.0 mm 0.00 in0.0 mm 0.00 in0.0 mm
01:36 PM 58.1°F14.5°C 18.4°F-7.6°C 21% 11.0 mph E17.7 kmh E 27.0 mph43.5 kmh 30.16 in1021.3 mb 0.00 in0.0 mm 0.00 in0.0 mm 0.00 in0.0 mm
01:41 PM 58.3°F14.6°C 17.4°F-8.1°C 20% 16.0 mph ENE25.7 kmh ENE 27.0 mph43.5 kmh 30.16 in1021.3 mb 0.00 in0.0 mm 0.00 in0.0 mm 0.00 in0.0 mm
01:46 PM 57.5°F14.2°C 17.9°F-7.8°C 21% 18.0 mph E29.0 kmh E 26.0 mph41.8 kmh 30.16 in1021.3 mb 0.00 in0.0 mm 0.00 in0.0 mm 0.00 in0.0 mm
01:51 PM 57.5°F14.2°C 16.8°F-8.4°C 20% 19.0 mph E30.6 kmh E 27.0 mph43.5 kmh 30.16 in1021.3 mb 0.00 in0.0 mm 0.00 in0.0 mm 0.00 in0.0 mm
01:56 PM 57.3°F14.1°C 16.6°F-8.6°C 20% 12.0 mph E19.3 kmh E 27.0 mph43.5 kmh 30.16 in1021.3 mb 0.00 in0.0 mm 0.00 in0.0 mm 0.00 in0.0 mm
02:01 PM 58.0°F14.4°C 18.3°F-7.6°C 21% 7.0 mph E11.3 kmh E 27.0 mph43.5 kmh 30.15 in1021.0 mb 0.00 in0.0 mm 0.00 in0.0 mm 0.00 in0.0 mm
02:06 PM 58.3°F14.6°C 17.4°F-8.1°C 20% 11.0 mph E17.7 kmh E 27.0 mph43.5 kmh 30.15 in1021.0 mb 0.00 in0.0 mm 0.00 in0.0 mm 0.00 in0.0 mm
02:11 PM 58.3°F14.6°C 16.2°F-8.8°C 19% 13.0 mph E20.9 kmh E 22.0 mph35.4 kmh 30.15 in1021.0 mb 0.00 in0.0 mm 0.00 in0.0 mm 0.00 in0.0 mm
02:16 PM 58.3°F14.6°C 17.4°F-8.1°C 20% 13.0 mph E20.9 kmh E 24.0 mph38.6 kmh 30.15 in1021.0 mb 0.00 in0.0 mm 0.00 in0.0 mm 0.00 in0.0 mm
02:21 PM 58.7°F14.8°C 16.6°F-8.6°C 19% 15.0 mph ENE24.1 kmh ENE 24.0 mph38.6 kmh 30.15 in1021.0 mb 0.00 in0.0 mm 0.00 in0.0 mm 0.00 in0.0 mm
02:26 PM 58.6°F14.8°C 16.5°F-8.6°C 19% 20.0 mph NE32.2 kmh NE 24.0 mph38.6 kmh 30.15 in1021.0 mb 0.00 in0.0 mm 0.00 in0.0 mm 0.00 in0.0 mm
02:31 PM 58.0°F14.4°C 17.2°F-8.2°C 20% 9.0 mph NE14.5 kmh NE 24.0 mph38.6 kmh 30.15 in1021.0 mb 0.00 in0.0 mm 0.00 in0.0 mm 0.00 in0.0 mm
02:36 PM 57.8°F14.3°C 17.0°F-8.3°C 20% 22.0 mph ENE35.4 kmh ENE 24.0 mph38.6 kmh 30.15 in1021.0 mb 0.00 in0.0 mm 0.00 in0.0 mm 0.00 in0.0 mm
02:41 PM 57.8°F14.3°C 17.0°F-8.3°C 20% 9.0 mph E14.5 kmh E 24.0 mph38.6 kmh 30.15 in1021.0 mb 0.00 in0.0 mm 0.00 in0.0 mm 0.00 in0.0 mm
02:46 PM 58.4°F14.7°C 16.3°F-8.7°C 19% 13.0 mph E20.9 kmh E 24.0 mph38.6 kmh 30.15 in1021.0 mb 0.00 in0.0 mm 0.00 in0.0 mm 0.00 in0.0 mm
02:51 PM 58.7°F14.8°C 17.7°F-7.9°C 20% 16.0 mph ENE25.7 kmh ENE 24.0 mph38.6 kmh 30.15 in1021.0 mb 0.00 in0.0 mm 0.00 in0.0 mm 0.00 in0.0 mm
02:56 PM 58.3°F14.6°C 17.4°F-8.1°C 20% 19.0 mph E30.6 kmh E 22.0 mph35.4 kmh 30.15 in1021.0 mb 0.00 in0.0 mm 0.00 in0.0 mm 0.00 in0.0 mm
03:01 PM 58.1°F14.5°C 16.1°F-8.8°C 19% 11.0 mph NE17.7 kmh NE 22.0 mph35.4 kmh 30.14 in1020.7 mb 0.00 in0.0 mm 0.00 in0.0 mm 0.00 in0.0 mm
03:06 PM 58.0°F14.4°C 16.0°F-8.9°C 19% 14.0 mph E22.5 kmh E 23.0 mph37.0 kmh 30.14 in1020.7 mb 0.00 in0.0 mm 0.00 in0.0 mm 0.00 in0.0 mm
03:11 PM 58.1°F14.5°C 16.1°F-8.8°C 19% 16.0 mph E25.7 kmh E 23.0 mph37.0 kmh 30.14 in1020.7 mb 0.00 in0.0 mm 0.00 in0.0 mm 0.00 in0.0 mm
03:16 PM 58.3°F14.6°C 16.2°F-8.8°C 19% 6.0 mph ESE9.7 kmh ESE 24.0 mph38.6 kmh 30.14 in1020.7 mb 0.00 in0.0 mm 0.00 in0.0 mm 0.00 in0.0 mm
03:21 PM 58.3°F14.6°C 16.2°F-8.8°C 19% 15.0 mph E24.1 kmh E 24.0 mph38.6 kmh 30.14 in1020.7 mb 0.00 in0.0 mm 0.00 in0.0 mm 0.00 in0.0 mm
03:26 PM 58.1°F14.5°C 14.8°F-9.6°C 18% 11.0 mph NE17.7 kmh NE 24.0 mph38.6 kmh 30.14 in1020.7 mb 0.00 in0.0 mm 0.00 in0.0 mm 0.00 in0.0 mm
03:31 PM 57.8°F14.3°C 15.8°F-9.0°C 19% 6.0 mph E9.7 kmh E 24.0 mph38.6 kmh 30.14 in1020.7 mb 0.00 in0.0 mm 0.00 in0.0 mm 0.00 in0.0 mm
03:36 PM 58.3°F14.6°C 15.0°F-9.4°C 18% 9.0 mph E14.5 kmh E 23.0 mph37.0 kmh 30.14 in1020.7 mb 0.00 in0.0 mm 0.00 in0.0 mm 0.00 in0.0 mm
03:41 PM 58.3°F14.6°C 15.0°F-9.4°C 18% 21.0 mph ENE33.8 kmh ENE 23.0 mph37.0 kmh 30.14 in1020.7 mb 0.00 in0.0 mm 0.00 in0.0 mm 0.00 in0.0 mm
03:46 PM 58.0°F14.4°C 16.0°F-8.9°C 19% 11.0 mph ENE17.7 kmh ENE 21.0 mph33.8 kmh 30.13 in1020.3 mb 0.00 in0.0 mm 0.00 in0.0 mm 0.00 in0.0 mm
03:51 PM 57.6°F14.2°C 13.1°F-10.5°C 17% 18.0 mph ENE29.0 kmh ENE 24.0 mph38.6 kmh 30.13 in1020.3 mb 0.00 in0.0 mm 0.00 in0.0 mm 0.00 in0.0 mm
03:56 PM 57.6°F14.2°C 14.4°F-9.8°C 18% 17.0 mph NE27.4 kmh NE 24.0 mph38.6 kmh 30.13 in1020.3 mb 0.00 in0.0 mm 0.00 in0.0 mm 0.00 in0.0 mm
04:01 PM 57.5°F14.2°C 14.3°F-9.8°C 18% 17.0 mph E27.4 kmh E 25.0 mph40.2 kmh 30.14 in1020.7 mb 0.00 in0.0 mm 0.00 in0.0 mm 0.00 in0.0 mm
04:06 PM 57.6°F14.2°C 15.7°F-9.1°C 19% 14.0 mph E22.5 kmh E 25.0 mph40.2 kmh 30.14 in1020.7 mb 0.00 in0.0 mm 0.00 in0.0 mm 0.00 in0.0 mm
04:11 PM 57.3°F14.1°C 14.2°F-9.9°C 18% 12.0 mph ENE19.3 kmh ENE 25.0 mph40.2 kmh 30.14 in1020.7 mb 0.00 in0.0 mm 0.00 in0.0 mm 0.00 in0.0 mm
04:16 PM 57.2°F14.0°C 15.3°F-9.3°C 19% 12.0 mph E19.3 kmh E 25.0 mph40.2 kmh 30.14 in1020.7 mb 0.00 in0.0 mm 0.00 in0.0 mm 0.00 in0.0 mm
04:21 PM 57.2°F14.0°C 14.1°F-9.9°C 18% 10.0 mph E16.1 kmh E 23.0 mph37.0 kmh 30.14 in1020.7 mb 0.00 in0.0 mm 0.00 in0.0 mm 0.00 in0.0 mm
04:26 PM 57.2°F14.0°C 14.1°F-9.9°C 18% 4.0 mph E6.4 kmh E 23.0 mph37.0 kmh 30.14 in1020.7 mb 0.00 in0.0 mm 0.00 in0.0 mm 0.00 in0.0 mm
04:31 PM 57.2°F14.0°C 15.3°F-9.3°C 19% 12.0 mph E19.3 kmh E 20.0 mph32.2 kmh 30.14 in1020.7 mb 0.00 in0.0 mm 0.00 in0.0 mm 0.00 in0.0 mm
04:36 PM 57.0°F13.9°C 15.2°F-9.3°C 19% 6.0 mph E9.7 kmh E 20.0 mph32.2 kmh 30.14 in1020.7 mb 0.00 in0.0 mm 0.00 in0.0 mm 0.00 in0.0 mm
04:41 PM 56.9°F13.8°C 13.9°F-10.1°C 18% 20.0 mph E32.2 kmh E 22.0 mph35.4 kmh 30.14 in1020.7 mb 0.00 in0.0 mm 0.00 in0.0 mm 0.00 in0.0 mm
04:46 PM 56.6°F13.7°C 14.8°F-9.6°C 19% 15.0 mph E24.1 kmh E 25.0 mph40.2 kmh 30.14 in1020.7 mb 0.00 in0.0 mm 0.00 in0.0 mm 0.00 in0.0 mm
04:51 PM 56.5°F13.6°C 13.5°F-10.3°C 18% 18.0 mph E29.0 kmh E 25.0 mph40.2 kmh 30.14 in1020.7 mb 0.00 in0.0 mm 0.00 in0.0 mm 0.00 in0.0 mm
04:56 PM 56.3°F13.5°C 14.6°F-9.7°C 19% 7.0 mph E11.3 kmh E 25.0 mph40.2 kmh 30.14 in1020.7 mb 0.00 in0.0 mm 0.00 in0.0 mm 0.00 in0.0 mm
05:01 PM 56.2°F13.4°C 13.3°F-10.4°C 18% 14.0 mph E22.5 kmh E 25.0 mph40.2 kmh 30.14 in1020.7 mb 0.00 in0.0 mm 0.00 in0.0 mm 0.00 in0.0 mm
05:06 PM 55.9°F13.3°C 15.4°F-9.2°C 20% 6.0 mph E9.7 kmh E 23.0 mph37.0 kmh 30.14 in1020.7 mb 0.00 in0.0 mm 0.00 in0.0 mm 0.00 in0.0 mm
05:11 PM 55.7°F13.2°C 14.1°F-9.9°C 19% 10.0 mph ENE16.1 kmh ENE 23.0 mph37.0 kmh 30.14 in1020.7 mb 0.00 in0.0 mm 0.00 in0.0 mm 0.00 in0.0 mm
05:16 PM 55.4°F13.0°C 15.0°F-9.4°C 20% 8.0 mph E12.9 kmh E 19.0 mph30.6 kmh 30.14 in1020.7 mb 0.00 in0.0 mm 0.00 in0.0 mm 0.00 in0.0 mm
05:21 PM 55.3°F12.9°C 14.9°F-9.5°C 20% 5.0 mph E8.0 kmh E 19.0 mph30.6 kmh 30.14 in1020.7 mb 0.00 in0.0 mm 0.00 in0.0 mm 0.00 in0.0 mm
05:26 PM 55.0°F12.8°C 14.7°F-9.6°C 20% 15.0 mph NE24.1 kmh NE 20.0 mph32.2 kmh 30.14 in1020.7 mb 0.00 in0.0 mm 0.00 in0.0 mm 0.00 in0.0 mm
05:31 PM 54.8°F12.7°C 14.5°F-9.7°C 20% 9.0 mph E14.5 kmh E 20.0 mph32.2 kmh 30.14 in1020.7 mb 0.00 in0.0 mm 0.00 in0.0 mm 0.00 in0.0 mm
05:36 PM 54.5°F12.5°C 15.4°F-9.2°C 21% 7.0 mph E11.3 kmh E 20.0 mph32.2 kmh 30.14 in1020.7 mb 0.00 in0.0 mm 0.00 in0.0 mm 0.00 in0.0 mm
05:41 PM 54.4°F12.4°C 15.3°F-9.3°C 21% 6.0 mph E9.7 kmh E 20.0 mph32.2 kmh 30.14 in1020.7 mb 0.00 in0.0 mm 0.00 in0.0 mm 0.00 in0.0 mm
05:46 PM 54.2°F12.3°C 16.2°F-8.8°C 22% 12.0 mph ENE19.3 kmh ENE 19.0 mph30.6 kmh 30.15 in1021.0 mb 0.00 in0.0 mm 0.00 in0.0 mm 0.00 in0.0 mm
05:51 PM 54.2°F12.3°C 15.1°F-9.4°C 21% 6.0 mph ENE9.7 kmh ENE 23.0 mph37.0 kmh 30.15 in1021.0 mb 0.00 in0.0 mm 0.00 in0.0 mm 0.00 in0.0 mm
05:56 PM 53.9°F12.2°C 14.9°F-9.5°C 21% 10.0 mph ENE16.1 kmh ENE 23.0 mph37.0 kmh 30.15 in1021.0 mb 0.00 in0.0 mm 0.00 in0.0 mm 0.00 in0.0 mm
06:01 PM 53.9°F12.2°C 14.9°F-9.5°C 21% 11.0 mph E17.7 kmh E 23.0 mph37.0 kmh 30.15 in1021.0 mb 0.00 in0.0 mm 0.00 in0.0 mm 0.00 in0.0 mm
06:06 PM 53.9°F12.2°C 14.9°F-9.5°C 21% 15.0 mph E24.1 kmh E 23.0 mph37.0 kmh 30.15 in1021.0 mb 0.00 in0.0 mm 0.00 in0.0 mm 0.00 in0.0 mm
06:11 PM 53.8°F12.1°C 14.8°F-9.6°C 21% 12.0 mph E19.3 kmh E 21.0 mph33.8 kmh 30.15 in1021.0 mb 0.00 in0.0 mm 0.00 in0.0 mm 0.00 in0.0 mm
06:16 PM 53.3°F11.8°C 14.4°F-9.8°C 21% 9.0 mph ENE14.5 kmh ENE 21.0 mph33.8 kmh 30.16 in1021.3 mb 0.00 in0.0 mm 0.00 in0.0 mm 0.00 in0.0 mm
06:21 PM 53.1°F11.7°C 15.3°F-9.3°C 22% 11.0 mph ENE17.7 kmh ENE 18.0 mph29.0 kmh 30.16 in1021.3 mb 0.00 in0.0 mm 0.00 in0.0 mm 0.00 in0.0 mm
06:26 PM 52.8°F11.6°C 15.0°F-9.4°C 22% 5.0 mph E8.0 kmh E 18.0 mph29.0 kmh 30.16 in1021.3 mb 0.00 in0.0 mm 0.00 in0.0 mm 0.00 in0.0 mm
06:31 PM 52.5°F11.4°C 15.8°F-9.0°C 23% 8.0 mph E12.9 kmh E 15.0 mph24.1 kmh 30.17 in1021.7 mb 0.00 in0.0 mm 0.00 in0.0 mm 0.00 in0.0 mm
06:36 PM 52.2°F11.2°C 15.5°F-9.2°C 23% 3.0 mph E4.8 kmh E 15.0 mph24.1 kmh 30.17 in1021.7 mb 0.00 in0.0 mm 0.00 in0.0 mm 0.00 in0.0 mm
06:41 PM 51.9°F11.1°C 16.3°F-8.7°C 24% 2.0 mph E3.2 kmh E 14.0 mph22.5 kmh 30.17 in1021.7 mb 0.00 in0.0 mm 0.00 in0.0 mm 0.00 in0.0 mm
06:46 PM 51.4°F10.8°C 15.8°F-9.0°C 24% 10.0 mph E16.1 kmh E 14.0 mph22.5 kmh 30.18 in1022.0 mb 0.00 in0.0 mm 0.00 in0.0 mm 0.00 in0.0 mm
06:51 PM 51.0°F10.6°C 15.5°F-9.2°C 24% 4.0 mph E6.4 kmh E 13.0 mph20.9 kmh 30.18 in1022.0 mb 0.00 in0.0 mm 0.00 in0.0 mm 0.00 in0.0 mm
06:56 PM 50.8°F10.4°C 15.3°F-9.3°C 24% 2.0 mph E3.2 kmh E 13.0 mph20.9 kmh 30.18 in1022.0 mb 0.00 in0.0 mm 0.00 in0.0 mm 0.00 in0.0 mm
07:01 PM 50.7°F10.4°C 15.2°F-9.3°C 24% 3.0 mph E4.8 kmh E 13.0 mph20.9 kmh 30.18 in1022.0 mb 0.00 in0.0 mm 0.00 in0.0 mm 0.00 in0.0 mm
07:06 PM 50.5°F10.3°C 15.1°F-9.4°C 24% 6.0 mph ESE9.7 kmh ESE 13.0 mph20.9 kmh 30.18 in1022.0 mb 0.00 in0.0 mm 0.00 in0.0 mm 0.00 in0.0 mm
07:11 PM 50.4°F10.2°C 14.0°F-10.0°C 23% 6.0 mph ENE9.7 kmh ENE 11.0 mph17.7 kmh 30.18 in1022.0 mb 0.00 in0.0 mm 0.00 in0.0 mm 0.00 in0.0 mm
07:16 PM 50.4°F10.2°C 14.0°F-10.0°C 23% 5.0 mph E8.0 kmh E 11.0 mph17.7 kmh 30.17 in1021.7 mb 0.00 in0.0 mm 0.00 in0.0 mm 0.00 in0.0 mm
07:21 PM 50.4°F10.2°C 14.0°F-10.0°C 23% 5.0 mph E8.0 kmh E 11.0 mph17.7 kmh 30.17 in1021.7 mb 0.00 in0.0 mm 0.00 in0.0 mm 0.00 in0.0 mm
07:26 PM 50.4°F10.2°C 14.0°F-10.0°C 23% 3.0 mph ESE4.8 kmh ESE 11.0 mph17.7 kmh 30.17 in1021.7 mb 0.00 in0.0 mm 0.00 in0.0 mm 0.00 in0.0 mm
07:31 PM 50.2°F10.1°C 13.9°F-10.1°C 23% 5.0 mph E8.0 kmh E 10.0 mph16.1 kmh 30.17 in1021.7 mb 0.00 in0.0 mm 0.00 in0.0 mm 0.00 in0.0 mm
07:36 PM 50.2°F10.1°C 13.9°F-10.1°C 23% 8.0 mph E12.9 kmh E 14.0 mph22.5 kmh 30.17 in1021.7 mb 0.00 in0.0 mm 0.00 in0.0 mm 0.00 in0.0 mm
07:41 PM 50.4°F10.2°C 13.0°F-10.6°C 22% 12.0 mph ENE19.3 kmh ENE 14.0 mph22.5 kmh 30.17 in1021.7 mb 0.00 in0.0 mm 0.00 in0.0 mm 0.00 in0.0 mm
07:46 PM 50.5°F10.3°C 12.0°F-11.1°C 21% 3.0 mph ESE4.8 kmh ESE 14.0 mph22.5 kmh 30.16 in1021.3 mb 0.00 in0.0 mm 0.00 in0.0 mm 0.00 in0.0 mm
07:51 PM 50.5°F10.3°C 10.9°F-11.7°C 20% 9.0 mph E14.5 kmh E 14.0 mph22.5 kmh 30.16 in1021.3 mb 0.00 in0.0 mm 0.00 in0.0 mm 0.00 in0.0 mm
07:56 PM 50.5°F10.3°C 10.9°F-11.7°C 20% 7.0 mph E11.3 kmh E 13.0 mph20.9 kmh 30.16 in1021.3 mb 0.00 in0.0 mm 0.00 in0.0 mm 0.00 in0.0 mm
08:01 PM 50.5°F10.3°C 9.8°F-12.3°C 19% 4.0 mph E6.4 kmh E 13.0 mph20.9 kmh 30.17 in1021.7 mb 0.00 in0.0 mm 0.00 in0.0 mm 0.00 in0.0 mm
08:06 PM 50.5°F10.3°C 9.8°F-12.3°C 19% 5.0 mph E8.0 kmh E 11.0 mph17.7 kmh 30.17 in1021.7 mb 0.00 in0.0 mm 0.00 in0.0 mm 0.00 in0.0 mm
08:11 PM 51.0°F10.6°C 10.2°F-12.1°C 19% 10.0 mph ESE16.1 kmh ESE 15.0 mph24.1 kmh 30.17 in1021.7 mb 0.00 in0.0 mm 0.00 in0.0 mm 0.00 in0.0 mm
08:16 PM 51.3°F10.7°C 10.5°F-11.9°C 19% 8.0 mph NE12.9 kmh NE 15.0 mph24.1 kmh 30.16 in1021.3 mb 0.00 in0.0 mm 0.00 in0.0 mm 0.00 in0.0 mm
08:21 PM 51.3°F10.7°C 10.5°F-11.9°C 19% 8.0 mph E12.9 kmh E 15.0 mph24.1 kmh 30.16 in1021.3 mb 0.00 in0.0 mm 0.00 in0.0 mm 0.00 in0.0 mm
08:26 PM 51.6°F10.9°C 10.7°F-11.8°C 19% 6.0 mph E9.7 kmh E 15.0 mph24.1 kmh 30.16 in1021.3 mb 0.00 in0.0 mm 0.00 in0.0 mm 0.00 in0.0 mm
08:31 PM 51.6°F10.9°C 10.7°F-11.8°C 19% 5.0 mph E8.0 kmh E 14.0 mph22.5 kmh 30.16 in1021.3 mb 0.00 in0.0 mm 0.00 in0.0 mm 0.00 in0.0 mm
08:36 PM 51.4°F10.8°C 10.5°F-11.9°C 19% 6.0 mph ESE9.7 kmh ESE 14.0 mph22.5 kmh 30.16 in1021.3 mb 0.00 in0.0 mm 0.00 in0.0 mm 0.00 in0.0 mm
08:41 PM 51.6°F10.9°C 10.7°F-11.8°C 19% 5.0 mph SE8.0 kmh SE 14.0 mph22.5 kmh 30.16 in1021.3 mb 0.00 in0.0 mm 0.00 in0.0 mm 0.00 in0.0 mm
08:46 PM 51.4°F10.8°C 10.5°F-11.9°C 19% 5.0 mph E8.0 kmh E 14.0 mph22.5 kmh 30.16 in1021.3 mb 0.00 in0.0 mm 0.00 in0.0 mm 0.00 in0.0 mm
08:51 PM 51.3°F10.7°C 10.5°F-11.9°C 19% 3.0 mph E4.8 kmh E 11.0 mph17.7 kmh 30.16 in1021.3 mb 0.00 in0.0 mm 0.00 in0.0 mm 0.00 in0.0 mm
08:56 PM 51.0°F10.6°C 10.2°F-12.1°C 19% 5.0 mph E8.0 kmh E 13.0 mph20.9 kmh 30.16 in1021.3 mb 0.00 in0.0 mm 0.00 in0.0 mm 0.00 in0.0 mm
09:01 PM 51.0°F10.6°C 10.2°F-12.1°C 19% 4.0 mph E6.4 kmh E 13.0 mph20.9 kmh 30.17 in1021.7 mb 0.00 in0.0 mm 0.00 in0.0 mm 0.00 in0.0 mm
09:06 PM 51.0°F10.6°C 10.2°F-12.1°C 19% 4.0 mph ESE6.4 kmh ESE 15.0 mph24.1 kmh 30.17 in1021.7 mb 0.00 in0.0 mm 0.00 in0.0 mm 0.00 in0.0 mm
09:11 PM 51.0°F10.6°C 10.2°F-12.1°C 19% 4.0 mph E6.4 kmh E 15.0 mph24.1 kmh 30.17 in1021.7 mb 0.00 in0.0 mm 0.00 in0.0 mm 0.00 in0.0 mm
09:16 PM 50.8°F10.4°C 10.1°F-12.2°C 19% 9.0 mph E14.5 kmh E 15.0 mph24.1 kmh 30.17 in1021.7 mb 0.00 in0.0 mm 0.00 in0.0 mm 0.00 in0.0 mm
09:21 PM 50.7°F10.4°C 11.1°F-11.6°C 20% 8.0 mph E12.9 kmh E 15.0 mph24.1 kmh 30.17 in1021.7 mb 0.00 in0.0 mm 0.00 in0.0 mm 0.00 in0.0 mm
09:26 PM 50.7°F10.4°C 10.0°F-12.2°C 19% 7.0 mph E11.3 kmh E 13.0 mph20.9 kmh 30.17 in1021.7 mb 0.00 in0.0 mm 0.00 in0.0 mm 0.00 in0.0 mm
09:31 PM 50.5°F10.3°C 10.9°F-11.7°C 20% 6.0 mph E9.7 kmh E 13.0 mph20.9 kmh 30.16 in1021.3 mb 0.00 in0.0 mm 0.00 in0.0 mm 0.00 in0.0 mm
09:36 PM 50.5°F10.3°C 10.9°F-11.7°C 20% 5.0 mph E8.0 kmh E 12.0 mph19.3 kmh 30.16 in1021.3 mb 0.00 in0.0 mm 0.00 in0.0 mm 0.00 in0.0 mm
09:41 PM 50.5°F10.3°C 10.9°F-11.7°C 20% 3.0 mph E4.8 kmh E 12.0 mph19.3 kmh 30.16 in1021.3 mb 0.00 in0.0 mm 0.00 in0.0 mm 0.00 in0.0 mm
09:46 PM 50.5°F10.3°C 10.9°F-11.7°C 20% 3.0 mph E4.8 kmh E 12.0 mph19.3 kmh 30.17 in1021.7 mb 0.00 in0.0 mm 0.00 in0.0 mm 0.00 in0.0 mm
09:51 PM 50.5°F10.3°C 10.9°F-11.7°C 20% 3.0 mph E4.8 kmh E 12.0 mph19.3 kmh 30.17 in1021.7 mb 0.00 in0.0 mm 0.00 in0.0 mm 0.00 in0.0 mm
09:56 PM 50.4°F10.2°C 9.7°F-12.4°C 19% 5.0 mph ESE8.0 kmh ESE 11.0 mph17.7 kmh 30.17 in1021.7 mb 0.00 in0.0 mm 0.00 in0.0 mm 0.00 in0.0 mm
10:01 PM 50.5°F10.3°C 9.8°F-12.3°C 19% 10.0 mph SE16.1 kmh SE 16.0 mph25.7 kmh 30.17 in1021.7 mb 0.00 in0.0 mm 0.00 in0.0 mm 0.00 in0.0 mm
10:06 PM 50.7°F10.4°C 10.0°F-12.2°C 19% 3.0 mph E4.8 kmh E 16.0 mph25.7 kmh 30.17 in1021.7 mb 0.00 in0.0 mm 0.00 in0.0 mm 0.00 in0.0 mm
10:11 PM 50.7°F10.4°C 10.0°F-12.2°C 19% 3.0 mph E4.8 kmh E 16.0 mph25.7 kmh 30.17 in1021.7 mb 0.00 in0.0 mm 0.00 in0.0 mm 0.00 in0.0 mm
10:16 PM 50.8°F10.4°C 10.1°F-12.2°C 19% 7.0 mph E11.3 kmh E 16.0 mph25.7 kmh 30.16 in1021.3 mb 0.00 in0.0 mm 0.00 in0.0 mm 0.00 in0.0 mm
10:21 PM 51.3°F10.7°C 10.5°F-11.9°C 19% 6.0 mph E9.7 kmh E 16.0 mph25.7 kmh 30.16 in1021.3 mb 0.00 in0.0 mm 0.00 in0.0 mm 0.00 in0.0 mm
10:26 PM 51.1°F10.6°C 10.3°F-12.1°C 19% 6.0 mph E9.7 kmh E 16.0 mph25.7 kmh 30.16 in1021.3 mb 0.00 in0.0 mm 0.00 in0.0 mm 0.00 in0.0 mm
10:31 PM 50.7°F10.4°C 10.0°F-12.2°C 19% 4.0 mph E6.4 kmh E 14.0 mph22.5 kmh 30.16 in1021.3 mb 0.00 in0.0 mm 0.00 in0.0 mm 0.00 in0.0 mm
10:36 PM 50.7°F10.4°C 10.0°F-12.2°C 19% 4.0 mph E6.4 kmh E 15.0 mph24.1 kmh 30.16 in1021.3 mb 0.00 in0.0 mm 0.00 in0.0 mm 0.00 in0.0 mm
10:41 PM 50.5°F10.3°C 9.8°F-12.3°C 19% 3.0 mph E4.8 kmh E 15.0 mph24.1 kmh 30.16 in1021.3 mb 0.00 in0.0 mm 0.00 in0.0 mm 0.00 in0.0 mm
10:46 PM 50.7°F10.4°C 10.0°F-12.2°C 19% 18.0 mph E29.0 kmh E 18.0 mph29.0 kmh 30.15 in1021.0 mb 0.00 in0.0 mm 0.00 in0.0 mm 0.00 in0.0 mm
10:51 PM 51.4°F10.8°C 9.3°F-12.6°C 18% 6.0 mph ENE9.7 kmh ENE 22.0 mph35.4 kmh 30.15 in1021.0 mb 0.00 in0.0 mm 0.00 in0.0 mm 0.00 in0.0 mm
10:56 PM 51.7°F10.9°C 9.6°F-12.4°C 18% 11.0 mph ENE17.7 kmh ENE 22.0 mph35.4 kmh 30.15 in1021.0 mb 0.00 in0.0 mm 0.00 in0.0 mm 0.00 in0.0 mm
11:01 PM 51.9°F11.1°C 9.8°F-12.3°C 18% 17.0 mph ENE27.4 kmh ENE 22.0 mph35.4 kmh 30.14 in1020.7 mb 0.00 in0.0 mm 0.00 in0.0 mm 0.00 in0.0 mm
11:06 PM 52.0°F11.1°C 8.6°F-13.0°C 17% 11.0 mph E17.7 kmh E 23.0 mph37.0 kmh 30.14 in1020.7 mb 0.00 in0.0 mm 0.00 in0.0 mm 0.00 in0.0 mm
11:11 PM 51.7°F10.9°C 9.6°F-12.4°C 18% 12.0 mph ENE19.3 kmh ENE 23.0 mph37.0 kmh 30.14 in1020.7 mb 0.00 in0.0 mm 0.00 in0.0 mm 0.00 in0.0 mm
11:16 PM 51.7°F10.9°C 9.6°F-12.4°C 18% 12.0 mph NE19.3 kmh NE 23.0 mph37.0 kmh 30.13 in1020.3 mb 0.00 in0.0 mm 0.00 in0.0 mm 0.00 in0.0 mm
11:21 PM 51.7°F10.9°C 9.6°F-12.4°C 18% 10.0 mph E16.1 kmh E 23.0 mph37.0 kmh 30.13 in1020.3 mb 0.00 in0.0 mm 0.00 in0.0 mm 0.00 in0.0 mm
11:26 PM 51.6°F10.9°C 9.5°F-12.5°C 18% 10.0 mph E16.1 kmh E 20.0 mph32.2 kmh 30.13 in1020.3 mb 0.00 in0.0 mm 0.00 in0.0 mm 0.00 in0.0 mm
11:31 PM 51.1°F10.6°C 9.1°F-12.7°C 18% 5.0 mph E8.0 kmh E 20.0 mph32.2 kmh 30.14 in1020.7 mb 0.00 in0.0 mm 0.00 in0.0 mm 0.00 in0.0 mm
11:36 PM 50.7°F10.4°C 10.0°F-12.2°C 19% 2.0 mph E3.2 kmh E 19.0 mph30.6 kmh 30.14 in1020.7 mb 0.00 in0.0 mm 0.00 in0.0 mm 0.00 in0.0 mm
11:41 PM 50.1°F10.1°C 10.6°F-11.9°C 20% 7.0 mph E11.3 kmh E 19.0 mph30.6 kmh 30.14 in1020.7 mb 0.00 in0.0 mm 0.00 in0.0 mm 0.00 in0.0 mm
11:46 PM 49.8°F9.9°C 10.4°F-12.0°C 20% 6.0 mph E9.7 kmh E 14.0 mph22.5 kmh 30.14 in1020.7 mb 0.00 in0.0 mm 0.00 in0.0 mm 0.00 in0.0 mm
11:51 PM 49.6°F9.8°C 10.2°F-12.1°C 20% 6.0 mph E9.7 kmh E 14.0 mph22.5 kmh 30.14 in1020.7 mb 0.00 in0.0 mm 0.00 in0.0 mm 0.00 in0.0 mm
11:56 PM 49.5°F9.7°C 10.1°F-12.2°C 20% 3.0 mph E4.8 kmh E 14.0 mph22.5 kmh 30.14 in1020.7 mb 0.00 in0.0 mm 0.00 in0.0 mm 0.00 in0.0 mm